createdAt,value
2019-03-30T00:01:00.257Z,98951.91
2019-03-30T00:03:31.154Z,98949.02
2019-03-30T00:06:02.460Z,98950.50
2019-03-30T00:08:33.254Z,98950.86
2019-03-30T00:11:03.965Z,98955.95
2019-03-30T00:13:34.751Z,98955.99
2019-03-30T00:16:06.083Z,98953.94
2019-03-30T00:18:36.838Z,98952.91
2019-03-30T00:21:07.566Z,98953.02
2019-03-30T00:23:38.529Z,98949.82
2019-03-30T00:26:09.291Z,98951.74
2019-03-30T00:28:40.006Z,98943.94
2019-03-30T00:31:10.957Z,98955.37
2019-03-30T00:33:41.877Z,98944.26
2019-03-30T00:36:12.917Z,98949.06
2019-03-30T00:38:43.674Z,98946.44
2019-03-30T00:41:14.672Z,98943.02
2019-03-30T00:43:45.415Z,98938.09
2019-03-30T00:46:16.225Z,98942.95
2019-03-30T00:48:46.955Z,98945.80
2019-03-30T00:51:17.783Z,98941.69
2019-03-30T00:53:48.547Z,98936.16
2019-03-30T00:56:19.942Z,98934.36
2019-03-30T00:58:50.679Z,98942.05
2019-03-30T01:01:21.420Z,98935.75
2019-03-30T01:03:52.175Z,98936.89
2019-03-30T01:06:23.019Z,98936.99
2019-03-30T01:08:53.782Z,98935.43
2019-03-30T01:11:25.295Z,98945.12
2019-03-30T01:13:56.071Z,98939.06
2019-03-30T01:16:26.859Z,98942.69
2019-03-30T01:18:57.748Z,98935.80
2019-03-30T01:21:28.647Z,98928.75
2019-03-30T01:23:59.855Z,98928.11
2019-03-30T01:26:30.592Z,98927.82
2019-03-30T01:29:01.663Z,98924.97
2019-03-30T01:31:32.403Z,98923.39
2019-03-30T01:34:06.031Z,98925.70
2019-03-30T01:36:37.046Z,98930.76
2019-03-30T01:39:09.207Z,98922.54
2019-03-30T01:41:40.253Z,98931.47
2019-03-30T01:44:11.161Z,98931.12
2019-03-30T01:46:42.032Z,98928.19
2019-03-30T01:49:13.119Z,98924.73
2019-03-30T01:51:43.868Z,98925.77
2019-03-30T01:54:14.630Z,98920.95
2019-03-30T01:56:45.343Z,98920.49
2019-03-30T01:59:16.101Z,98920.19
2019-03-30T02:01:46.857Z,98924.29
2019-03-30T02:04:17.674Z,98918.13
2019-03-30T02:06:48.376Z,98920.29
2019-03-30T02:09:19.215Z,98916.05
2019-03-30T02:11:50.011Z,98916.05
2019-03-30T02:14:20.783Z,98915.16
2019-03-30T02:16:51.572Z,98908.28
2019-03-30T02:19:22.665Z,98913.67
2019-03-30T02:21:53.389Z,98915.59
2019-03-30T02:24:24.149Z,98918.10
2019-03-30T02:26:54.916Z,98919.47
2019-03-30T02:29:25.960Z,98914.91
2019-03-30T02:31:56.745Z,98918.92
2019-03-30T02:34:27.581Z,98922.80
2019-03-30T02:36:58.458Z,98920.05
2019-03-30T02:39:29.218Z,98922.00
2019-03-30T02:42:00.121Z,98924.85
2019-03-30T02:44:30.883Z,98921.68
2019-03-30T02:47:01.595Z,98922.56
2019-03-30T02:49:32.346Z,98929.30
2019-03-30T02:52:03.064Z,98928.60
2019-03-30T02:54:33.800Z,98916.97
2019-03-30T02:57:04.817Z,98923.58
2019-03-30T02:59:35.551Z,98915.78
2019-03-30T03:02:06.303Z,98916.21
2019-03-30T03:04:37.056Z,98916.20
2019-03-30T03:07:07.881Z,98909.39
2019-03-30T03:09:38.779Z,98905.98
2019-03-30T03:12:09.513Z,98910.30
2019-03-30T03:14:40.277Z,98909.05
2019-03-30T03:17:10.981Z,98911.67
2019-03-30T03:19:42.275Z,98911.87
2019-03-30T03:22:12.975Z,98908.08
2019-03-30T03:24:43.727Z,98905.41
2019-03-30T03:27:14.636Z,98901.30
2019-03-30T03:29:45.494Z,98900.92
2019-03-30T03:32:16.197Z,98904.31
2019-03-30T03:34:46.953Z,98910.38
2019-03-30T03:37:17.690Z,98908.19
2019-03-30T03:39:48.495Z,98901.84
2019-03-30T03:42:19.204Z,98901.27
2019-03-30T03:44:50.196Z,98909.92
2019-03-30T03:47:20.903Z,98909.21
2019-03-30T03:49:52.117Z,98904.37
2019-03-30T03:52:22.993Z,98901.97
2019-03-30T03:54:54.639Z,98907.27
2019-03-30T03:57:28.307Z,98900.29
2019-03-30T04:00:00.614Z,98898.34
2019-03-30T04:02:37.098Z,98902.21
2019-03-30T04:05:09.746Z,98908.56
2019-03-30T04:07:43.134Z,98900.33
2019-03-30T04:10:14.021Z,98902.29
2019-03-30T04:12:47.434Z,98901.83
2019-03-30T04:15:27.490Z,98899.92
2019-03-30T04:17:58.193Z,98899.84
2019-03-30T04:20:29.313Z,98901.58
2019-03-30T04:23:00.033Z,98904.67
2019-03-30T04:25:30.780Z,98900.67
2019-03-30T04:28:02.517Z,98904.42
2019-03-30T04:30:33.268Z,98905.99
2019-03-30T04:33:03.992Z,98898.92
2019-03-30T04:35:35.238Z,98902.11
2019-03-30T04:38:06.134Z,98897.44
2019-03-30T04:40:36.959Z,98900.17
2019-03-30T04:43:07.730Z,98894.98
2019-03-30T04:45:38.557Z,98894.33
2019-03-30T04:48:09.254Z,98893.77
2019-03-30T04:50:40.095Z,98888.94
2019-03-30T04:53:11.002Z,98890.62
2019-03-30T04:55:42.001Z,98889.03
2019-03-30T04:58:12.775Z,98896.30
2019-03-30T05:00:43.580Z,98897.70
2019-03-30T05:03:14.400Z,98898.33
2019-03-30T05:05:45.223Z,98902.76
2019-03-30T05:08:16.002Z,98897.06
2019-03-30T05:10:46.823Z,98897.76
2019-03-30T05:13:17.764Z,98899.12
2019-03-30T05:15:48.833Z,98900.29
2019-03-30T05:18:19.577Z,98901.55
2019-03-30T05:20:50.315Z,98908.12
2019-03-30T05:23:21.798Z,98911.31
2019-03-30T05:25:52.601Z,98913.88
2019-03-30T05:28:23.321Z,98905.09
2019-03-30T05:30:54.115Z,98910.44
2019-03-30T05:33:24.831Z,98906.34
2019-03-30T05:35:55.560Z,98910.66
2019-03-30T05:38:26.267Z,98901.14
2019-03-30T05:40:57.135Z,98908.34
2019-03-30T05:43:27.853Z,98903.19
2019-03-30T05:45:58.767Z,98910.05
2019-03-30T05:48:29.554Z,98908.45
2019-03-30T05:51:00.312Z,98909.36
2019-03-30T05:53:31.213Z,98908.67
2019-03-30T05:56:02.277Z,98908.81
2019-03-30T05:58:32.959Z,98901.98
2019-03-30T06:01:03.701Z,98899.61
2019-03-30T06:03:34.656Z,98904.20
2019-03-30T06:06:05.656Z,98904.72
2019-03-30T06:08:36.401Z,98904.04
2019-03-30T06:11:07.211Z,98913.30
2019-03-30T06:13:37.929Z,98913.56
2019-03-30T06:16:08.782Z,98914.07
2019-03-30T06:18:39.509Z,98904.98
2019-03-30T06:21:10.252Z,98912.09
2019-03-30T06:23:41.661Z,98917.07
2019-03-30T06:26:12.426Z,98910.56
2019-03-30T06:28:43.128Z,98907.32
2019-03-30T06:31:13.933Z,98907.27
2019-03-30T06:33:44.663Z,98914.62
2019-03-30T06:36:15.405Z,98906.94
2019-03-30T06:38:46.095Z,98906.09
2019-03-30T06:41:17.664Z,98910.13
2019-03-30T06:43:48.357Z,98911.47
2019-03-30T06:46:19.447Z,98910.22
2019-03-30T06:48:50.178Z,98909.72
2019-03-30T06:51:20.942Z,98908.52
2019-03-30T06:53:51.642Z,98913.95
2019-03-30T06:56:22.426Z,98914.43
2019-03-30T06:58:53.311Z,98914.04
2019-03-30T07:01:24.207Z,98908.77
2019-03-30T07:03:55.514Z,98909.19
2019-03-30T07:06:26.545Z,98907.02
2019-03-30T07:08:58.218Z,98910.20
2019-03-30T07:11:32.761Z,98905.48
2019-03-30T07:14:05.526Z,98916.63
2019-03-30T07:16:38.555Z,98905.70
2019-03-30T07:19:09.649Z,98904.13
2019-03-30T07:21:40.383Z,98909.13
2019-03-30T07:24:11.097Z,98911.72
2019-03-30T07:26:41.843Z,98911.92
2019-03-30T07:29:12.638Z,98908.80
2019-03-30T07:31:43.473Z,98910.89
2019-03-30T07:34:14.225Z,98908.84
2019-03-30T07:36:45.519Z,98908.39
2019-03-30T07:39:16.216Z,98899.96
2019-03-30T07:41:47.061Z,98906.75
2019-03-30T07:44:17.757Z,98903.72
2019-03-30T07:46:48.579Z,98893.81
2019-03-30T07:49:19.348Z,98904.88
2019-03-30T07:51:50.125Z,98906.93
2019-03-30T07:54:20.858Z,98902.23
2019-03-30T07:57:04.176Z,98902.28
2019-03-30T07:59:24.413Z,98904.92
2019-03-30T08:01:55.191Z,98898.50
2019-03-30T08:04:28.665Z,98898.56
2019-03-30T08:06:58.792Z,98897.10
2019-03-30T08:09:29.692Z,98887.59
2019-03-30T08:12:00.822Z,98890.58
2019-03-30T08:14:31.700Z,98886.69
2019-03-30T08:17:02.435Z,98883.80
2019-03-30T08:19:33.561Z,98892.40
2019-03-30T08:22:04.340Z,98889.66
2019-03-30T08:24:35.209Z,98892.55
2019-03-30T08:27:05.961Z,98886.23
2019-03-30T08:29:36.773Z,98886.83
2019-03-30T08:32:07.553Z,98886.79
2019-03-30T08:34:39.154Z,98890.59
2019-03-30T08:37:09.884Z,98884.92
2019-03-30T08:39:40.612Z,98883.39
2019-03-30T08:42:11.332Z,98881.25
2019-03-30T08:44:42.087Z,98874.46
2019-03-30T08:47:12.798Z,98876.48
2019-03-30T08:49:43.679Z,98876.77
2019-03-30T08:52:14.402Z,98874.59
2019-03-30T08:54:45.158Z,98870.34
2019-03-30T08:57:16.396Z,98868.37
2019-03-30T08:59:47.147Z,98858.81
2019-03-30T09:02:18.229Z,98862.20
2019-03-30T09:04:48.942Z,98869.81
2019-03-30T09:07:19.968Z,98863.43
2019-03-30T09:09:50.691Z,98862.13
2019-03-30T09:12:21.673Z,98865.48
2019-03-30T09:14:52.410Z,98854.61
2019-03-30T09:17:23.121Z,98859.52
2019-03-30T09:19:54.408Z,98858.96
2019-03-30T09:22:25.132Z,98852.30
2019-03-30T09:24:55.865Z,98843.09
2019-03-30T09:27:26.618Z,98846.39
2019-03-30T09:29:57.349Z,98840.38
2019-03-30T09:32:28.339Z,98843.70
2019-03-30T09:34:59.138Z,98836.81
2019-03-30T09:37:29.894Z,98836.75
2019-03-30T09:40:00.590Z,98830.83
2019-03-30T09:42:31.386Z,98829.77
2019-03-30T09:45:02.114Z,98826.58
2019-03-30T09:47:33.305Z,98827.27
2019-03-30T09:50:04.305Z,98826.87
2019-03-30T09:52:35.068Z,98816.08
2019-03-30T09:55:06.386Z,98808.81
2019-03-30T09:57:37.129Z,98815.00
2019-03-30T10:00:09.634Z,98823.14
2019-03-30T10:02:40.399Z,98813.02
2019-03-30T10:05:11.354Z,98811.70
2019-03-30T10:07:42.137Z,98805.31
2019-03-30T10:10:13.355Z,98800.41
2019-03-30T10:12:44.105Z,98794.63
2019-03-30T10:15:15.405Z,98791.30
2019-03-30T10:17:46.148Z,98788.82
2019-03-30T10:20:17.308Z,98786.55
2019-03-30T10:22:48.699Z,98785.97
2019-03-30T10:25:19.405Z,98784.38
2019-03-30T10:27:50.140Z,98778.88
2019-03-30T10:30:21.048Z,98776.06
2019-03-30T10:32:51.803Z,98773.05
2019-03-30T10:35:22.649Z,98772.75
2019-03-30T10:37:53.381Z,98765.73
2019-03-30T10:40:24.278Z,98764.41
2019-03-30T10:42:55.027Z,98768.22
2019-03-30T10:45:26.162Z,98770.33
2019-03-30T10:47:56.896Z,98759.78
2019-03-30T10:50:27.655Z,98759.16
2019-03-30T10:52:58.487Z,98746.03
2019-03-30T10:55:29.274Z,98751.33
2019-03-30T10:58:00.014Z,98749.38
2019-03-30T11:00:38.336Z,98745.77
2019-03-30T11:03:09.675Z,98739.37
2019-03-30T11:05:40.558Z,98740.17
2019-03-30T11:08:11.302Z,98737.27
2019-03-30T11:10:42.954Z,98733.05
2019-03-30T11:13:13.711Z,98737.98
2019-03-30T11:15:44.434Z,98730.52
2019-03-30T11:18:15.339Z,98724.89
2019-03-30T11:20:46.129Z,98721.17
2019-03-30T11:23:16.941Z,98719.87
2019-03-30T11:25:50.222Z,98712.52
2019-03-30T11:28:20.961Z,98712.44
2019-03-30T11:30:51.694Z,98710.36
2019-03-30T11:33:23.075Z,98707.19
2019-03-30T11:35:53.817Z,98697.11
2019-03-30T11:38:24.586Z,98699.02
2019-03-30T11:40:55.293Z,98694.27
2019-03-30T11:43:26.116Z,98688.69
2019-03-30T11:45:57.057Z,98688.64
2019-03-30T11:48:27.790Z,98684.36
2019-03-30T11:50:59.213Z,98682.34
2019-03-30T11:53:29.976Z,98676.98
2019-03-30T11:56:00.747Z,98671.71
2019-03-30T11:58:32.058Z,98664.33
2019-03-30T12:01:02.773Z,98661.89
2019-03-30T12:03:34.260Z,98653.22
2019-03-30T12:06:05.117Z,98650.78
2019-03-30T12:08:35.944Z,98639.34
2019-03-30T12:11:07.633Z,98641.83
2019-03-30T12:13:38.394Z,98635.02
2019-03-30T12:16:09.247Z,98632.20
2019-03-30T12:18:39.990Z,98631.02
2019-03-30T12:21:10.761Z,98624.86
2019-03-30T12:23:42.833Z,98632.69
2019-03-30T12:26:14.441Z,98621.85
2019-03-30T12:28:45.194Z,98620.31
2019-03-30T12:31:16.663Z,98613.91
2019-03-30T12:33:47.553Z,98617.30
2019-03-30T12:36:18.405Z,98625.00
2019-03-30T12:38:49.165Z,98618.04
2019-03-30T12:41:20.335Z,98608.83
2019-03-30T12:43:51.162Z,98602.48
2019-03-30T12:46:21.888Z,98601.23
2019-03-30T12:48:52.629Z,98592.09
2019-03-30T12:51:23.721Z,98599.34
2019-03-30T12:53:55.345Z,98585.88
2019-03-30T12:56:26.539Z,98576.53
2019-03-30T12:58:57.300Z,98580.98
2019-03-30T13:01:28.106Z,98565.69
2019-03-30T13:03:58.835Z,98568.93
2019-03-30T13:06:29.594Z,98562.03
2019-03-30T13:09:00.325Z,98559.55
2019-03-30T13:11:31.585Z,98564.33
2019-03-30T13:14:02.321Z,98556.56
2019-03-30T13:16:33.035Z,98552.80
2019-03-30T13:19:04.006Z,98553.55
2019-03-30T13:21:34.781Z,98552.58
2019-03-30T13:24:05.669Z,98546.80
2019-03-30T13:26:36.404Z,98551.20
2019-03-30T13:29:07.228Z,98547.92
2019-03-30T13:31:37.972Z,98542.70
2019-03-30T13:34:08.713Z,98540.59
2019-03-30T13:36:40.673Z,98534.24
2019-03-30T13:39:11.918Z,98535.08
2019-03-30T13:41:43.098Z,98529.63
2019-03-30T13:44:13.841Z,98527.20
2019-03-30T13:46:44.633Z,98530.77
2019-03-30T13:49:16.201Z,98519.31
2019-03-30T13:51:46.902Z,98519.43
2019-03-30T13:54:17.870Z,98515.24
2019-03-30T13:56:49.142Z,98521.27
2019-03-30T13:59:19.976Z,98514.64
2019-03-30T14:01:50.789Z,98511.37
2019-03-30T14:04:21.949Z,98511.73
2019-03-30T14:06:52.919Z,98505.03
2019-03-30T14:09:23.768Z,98503.95
2019-03-30T14:11:54.656Z,98495.19
2019-03-30T14:14:26.032Z,98492.61
2019-03-30T14:16:57.034Z,98499.17
2019-03-30T14:19:28.040Z,98500.65
2019-03-30T14:21:59.005Z,98494.73
2019-03-30T14:24:29.992Z,98488.50
2019-03-30T14:27:00.760Z,98484.25
2019-03-30T14:29:31.693Z,98479.03
2019-03-30T14:32:02.387Z,98477.50
2019-03-30T14:34:33.199Z,98468.83
2019-03-30T14:37:04.173Z,98466.02
2019-03-30T14:39:35.155Z,98457.36
2019-03-30T14:42:05.977Z,98450.17
2019-03-30T14:44:36.718Z,98457.80
2019-03-30T14:47:07.482Z,98447.86
2019-03-30T14:49:38.419Z,98442.91
2019-03-30T14:52:09.490Z,98443.77
2019-03-30T14:54:52.062Z,98433.14
2019-03-30T14:57:12.932Z,98436.47
2019-03-30T14:59:43.736Z,98430.39
2019-03-30T15:02:14.490Z,98430.57
2019-03-30T15:04:45.246Z,98429.31
2019-03-30T15:07:15.972Z,98424.61
2019-03-30T15:09:46.806Z,98425.31
2019-03-30T15:12:17.505Z,98428.23
2019-03-30T15:14:48.345Z,98422.02
2019-03-30T15:17:19.676Z,98423.09
2019-03-30T15:19:50.396Z,98411.64
2019-03-30T15:22:21.251Z,98413.09
2019-03-30T15:24:51.951Z,98412.38
2019-03-30T15:27:22.692Z,98405.98
2019-03-30T15:29:53.468Z,98400.13
2019-03-30T15:32:24.827Z,98400.49
2019-03-30T15:34:58.295Z,98396.34
2019-03-30T15:37:28.139Z,98396.72
2019-03-30T15:39:58.873Z,98391.72
2019-03-30T15:42:29.628Z,98392.34
2019-03-30T15:45:00.673Z,98392.50
2019-03-30T15:47:31.591Z,98398.06
2019-03-30T15:50:02.301Z,98393.69
2019-03-30T15:52:33.202Z,98392.45
2019-03-30T15:55:04.281Z,98388.57
2019-03-30T15:57:35.113Z,98395.92
2019-03-30T16:00:07.261Z,98383.86
2019-03-30T16:02:38.239Z,98386.60
2019-03-30T16:05:09.544Z,98387.94
2019-03-30T16:07:40.361Z,98387.43
2019-03-30T16:10:12.103Z,98382.81
2019-03-30T16:12:43.127Z,98383.50
2019-03-30T16:15:14.122Z,98386.80
2019-03-30T16:17:44.870Z,98382.06
2019-03-30T16:20:16.231Z,98379.71
2019-03-30T16:22:47.127Z,98379.83
2019-03-30T16:25:18.475Z,98383.13
2019-03-30T16:27:49.199Z,98383.39
2019-03-30T16:30:20.466Z,98383.53
2019-03-30T16:32:51.588Z,98381.53
2019-03-30T16:35:22.255Z,98382.66
2019-03-30T16:37:52.997Z,98381.85
2019-03-30T16:40:24.077Z,98379.78
2019-03-30T16:42:55.152Z,98375.95
2019-03-30T16:45:25.877Z,98377.51
2019-03-30T16:47:57.063Z,98378.23
2019-03-30T16:50:28.022Z,98376.97
2019-03-30T16:52:58.802Z,98376.87
2019-03-30T16:55:29.791Z,98383.32
2019-03-30T16:58:00.779Z,98379.91
2019-03-30T17:00:35.261Z,98369.95
2019-03-30T17:03:06.431Z,98378.64
2019-03-30T17:05:37.155Z,98381.27
2019-03-30T17:08:08.024Z,98383.48
2019-03-30T17:10:40.505Z,98379.56
2019-03-30T17:13:11.240Z,98377.91
2019-03-30T17:15:41.953Z,98377.46
2019-03-30T17:18:13.303Z,98372.30
2019-03-30T17:20:44.290Z,98380.39
2019-03-30T17:23:15.079Z,98381.34
2019-03-30T17:25:45.767Z,98373.92
2019-03-30T17:28:16.535Z,98373.15
2019-03-30T17:30:47.324Z,98370.61
2019-03-30T17:33:18.088Z,98372.27
2019-03-30T17:35:49.332Z,98371.27
2019-03-30T17:38:20.051Z,98373.98
2019-03-30T17:40:51.540Z,98369.14
2019-03-30T17:43:22.362Z,98374.28
2019-03-30T17:45:53.160Z,98374.77
2019-03-30T17:48:23.909Z,98381.95
2019-03-30T17:50:57.964Z,98372.92
2019-03-30T17:53:27.213Z,98378.23
2019-03-30T17:55:57.947Z,98375.61
2019-03-30T17:58:28.700Z,98379.54
2019-03-30T18:00:59.400Z,98373.39
2019-03-30T18:03:30.175Z,98377.47
2019-03-30T18:06:00.882Z,98371.66
2019-03-30T18:08:31.688Z,98380.17
2019-03-30T18:11:04.128Z,98373.92
2019-03-30T18:13:36.953Z,98379.67
2019-03-30T18:16:07.779Z,98382.47
2019-03-30T18:18:38.591Z,98385.09
2019-03-30T18:21:09.793Z,98385.64
2019-03-30T18:23:40.536Z,98389.98
2019-03-30T18:26:11.247Z,98386.77
2019-03-30T18:28:42.023Z,98389.33
2019-03-30T18:31:12.729Z,98389.16
2019-03-30T18:33:44.219Z,98396.23
2019-03-30T18:36:17.652Z,98403.52
2019-03-30T18:38:50.682Z,98400.66
2019-03-30T18:41:21.582Z,98404.88
2019-03-30T18:43:52.791Z,98401.91
2019-03-30T18:46:23.520Z,98403.97
2019-03-30T18:48:54.337Z,98405.35
2019-03-30T18:51:25.765Z,98412.63
2019-03-30T18:53:56.690Z,98407.37
2019-03-30T18:56:28.036Z,98413.20
2019-03-30T18:58:58.861Z,98411.64
2019-03-30T19:01:29.553Z,98414.55
2019-03-30T19:04:00.343Z,98420.73
2019-03-30T19:06:31.097Z,98416.17
2019-03-30T19:09:01.852Z,98421.89
2019-03-30T19:11:32.579Z,98419.05
2019-03-30T19:14:03.423Z,98422.49
2019-03-30T19:16:34.476Z,98423.77
2019-03-30T19:19:05.209Z,98431.22
2019-03-30T19:21:35.911Z,98435.84
2019-03-30T19:24:06.808Z,98435.20
2019-03-30T19:26:37.614Z,98434.53
2019-03-30T19:29:08.340Z,98440.58
2019-03-30T19:31:39.129Z,98441.64
2019-03-30T19:34:10.317Z,98444.77
2019-03-30T19:36:41.114Z,98456.02
2019-03-30T19:39:11.911Z,98451.20
2019-03-30T19:41:42.644Z,98449.30
2019-03-30T19:44:14.121Z,98449.52
2019-03-30T19:46:44.929Z,98456.00
2019-03-30T19:49:15.715Z,98459.20
2019-03-30T19:51:46.451Z,98463.03
2019-03-30T19:54:17.199Z,98458.16
2019-03-30T19:56:47.992Z,98462.42
2019-03-30T19:59:18.879Z,98456.33
2019-03-30T20:01:49.595Z,98453.50
2019-03-30T20:04:20.374Z,98450.20
2019-03-30T20:06:51.211Z,98448.10
2019-03-30T20:09:22.271Z,98452.69
2019-03-30T20:11:53.714Z,98448.81
2019-03-30T20:14:24.565Z,98447.28
2019-03-30T20:16:55.618Z,98447.66
2019-03-30T20:19:26.691Z,98450.07
2019-03-30T20:21:57.650Z,98442.54
2019-03-30T20:24:28.366Z,98439.02
2019-03-30T20:26:59.215Z,98439.94
2019-03-30T20:29:30.413Z,98440.36
2019-03-30T20:32:01.119Z,98435.50
2019-03-30T20:34:31.895Z,98441.84
2019-03-30T20:37:02.670Z,98443.56
2019-03-30T20:39:33.413Z,98442.66
2019-03-30T20:42:04.142Z,98441.77
2019-03-30T20:44:35.046Z,98437.52
2019-03-30T20:47:05.854Z,98441.42
2019-03-30T20:49:36.603Z,98439.08
2019-03-30T20:52:07.587Z,98438.67
2019-03-30T20:54:39.019Z,98445.92
2019-03-30T20:57:09.826Z,98442.16
2019-03-30T20:59:40.817Z,98436.77
2019-03-30T21:02:11.536Z,98446.13
2019-03-30T21:04:42.544Z,98440.94
2019-03-30T21:07:13.320Z,98439.41
2019-03-30T21:09:44.042Z,98442.89
2019-03-30T21:12:15.527Z,98446.05
2019-03-30T21:14:46.534Z,98443.36
2019-03-30T21:17:17.821Z,98444.93
2019-03-30T21:19:48.553Z,98445.76
2019-03-30T21:22:19.336Z,98449.08
2019-03-30T21:24:50.264Z,98452.92
2019-03-30T21:27:21.101Z,98450.08
2019-03-30T21:29:54.995Z,98447.30
2019-03-30T21:32:25.932Z,98447.22
2019-03-30T21:34:57.358Z,98449.60
2019-03-30T21:37:28.092Z,98453.36
2019-03-30T21:39:58.898Z,98454.00
2019-03-30T21:42:29.603Z,98458.78
2019-03-30T21:45:00.526Z,98462.00
2019-03-30T21:47:31.430Z,98450.56
2019-03-30T21:50:02.169Z,98455.60
2019-03-30T21:52:32.908Z,98451.64
2019-03-30T21:55:04.371Z,98450.73
2019-03-30T21:57:40.895Z,98454.57
2019-03-30T22:00:15.021Z,98454.42
2019-03-30T22:02:45.757Z,98453.13
2019-03-30T22:05:16.617Z,98452.50
2019-03-30T22:07:47.429Z,98453.78
2019-03-30T22:10:28.213Z,98457.91
2019-03-30T22:12:59.103Z,98454.58
2019-03-30T22:15:31.042Z,98458.03
2019-03-30T22:18:01.789Z,98452.66
2019-03-30T22:20:32.609Z,98449.96
2019-03-30T22:23:03.306Z,98450.61
2019-03-30T22:25:34.129Z,98450.27
2019-03-30T22:28:04.858Z,98446.48
2019-03-30T22:30:35.658Z,98444.44
2019-03-30T22:33:06.803Z,98444.59
2019-03-30T22:35:37.772Z,98443.32
2019-03-30T22:38:08.561Z,98448.09
2019-03-30T22:40:41.385Z,98450.44
2019-03-30T22:43:11.831Z,98451.18
2019-03-30T22:45:43.160Z,98453.33
2019-03-30T22:48:14.008Z,98450.12
2019-03-30T22:50:44.755Z,98449.44
2019-03-30T22:53:15.556Z,98454.25
2019-03-30T22:55:46.304Z,98454.64
2019-03-30T22:58:17.000Z,98451.50
2019-03-30T23:00:59.319Z,98451.89
2019-03-30T23:03:30.027Z,98458.86
2019-03-30T23:06:01.547Z,98459.83
2019-03-30T23:08:32.244Z,98455.73
2019-03-30T23:11:03.298Z,98460.52
2019-03-30T23:13:34.049Z,98459.02
2019-03-30T23:16:04.879Z,98456.52
2019-03-30T23:18:35.708Z,98456.53
2019-03-30T23:21:07.794Z,98457.33
2019-03-30T23:23:38.510Z,98453.98
2019-03-30T23:26:09.391Z,98457.30
2019-03-30T23:28:40.183Z,98451.41
2019-03-30T23:31:10.979Z,98457.38
2019-03-30T23:33:41.765Z,98452.98
2019-03-30T23:36:13.686Z,98445.61
2019-03-30T23:38:44.423Z,98452.17
2019-03-30T23:41:15.159Z,98453.75
2019-03-30T23:43:45.860Z,98453.57
2019-03-30T23:46:16.797Z,98450.14
2019-03-30T23:48:47.508Z,98454.16
2019-03-30T23:51:18.262Z,98460.37
2019-03-30T23:53:48.978Z,98457.61
2019-03-30T23:56:23.163Z,98459.53
2019-03-30T23:58:54.348Z,98462.13
